KCLT

Charlotte Douglas International Airport

Airport
ICAO code
KCLT
IATA Code
CLT
Summary
ICAO Region
NAM
ICAO Territory
Location

Charlotte, North Carolina

Serving
Charlotte
Elevation
748 ft
Coordinates
35° 12' 50" N , 80° 56' 35" W
KCC
Airport LOS
Parallel Runway Operation
Airport RE
Engineered Materials Arresting System
Airport WX
Cumulonimbus
Metar
KCLT 230252Z 17011G17KT 10SM SCT090 29/18 A3004 RMK AO2 SLP175 T02940183 53008

Description

International airport serving Charlotte, North Carolina, USA.

SKYbrary Partners:

Safety knowledge contributed by: